Time;durP1;ratioP1;P1;durP2;ratioP2;P2;SDS_P1;SDS_P2;PMS_P1;PMS_P2;Temp;Humidity;BMP_temperature;BMP_pressure;BME280_temperature;BME280_humidity;BME280_pressure;Samples;Min_cycle;Max_cycle;Signal;HPM_P1;HPM_P2
2021/06/03 00:00:16;;;;;;;6.65;2.90;;;19.40;55.20;;;;;;6189965;23;20108;-92
2021/06/03 00:02:47;;;;;;;3.53;2.95;;;19.40;55.00;;;;;;6189945;23;20435;-92
2021/06/03 00:05:14;;;;;;;5.15;3.22;;;19.30;55.20;;;;;;6215596;23;20079;-91
2021/06/03 00:07:40;;;;;;;7.82;2.80;;;19.30;55.40;;;;;;6218095;23;20000;-93
2021/06/03 00:10:08;;;;;;;4.40;2.88;;;19.20;55.40;;;;;;6188667;23;20019;-89
2021/06/03 00:12:34;;;;;;;5.53;2.45;;;19.10;55.70;;;;;;6188074;23;20024;-92
2021/06/03 00:15:00;;;;;;;3.42;2.72;;;19.20;55.60;;;;;;6215767;23;20419;-92
2021/06/03 00:17:26;;;;;;;4.07;2.80;;;19.30;55.40;;;;;;6188633;23;20000;-91
2021/06/03 00:19:52;;;;;;;4.25;2.83;;;19.10;55.50;;;;;;6187981;23;20039;-93
2021/06/03 00:22:18;;;;;;;3.42;2.53;;;18.90;56.00;;;;;;6188733;23;20004;-91
2021/06/03 00:24:45;;;;;;;8.82;3.05;;;18.80;56.30;;;;;;6189915;23;20005;-92
2021/06/03 00:27:12;;;;;;;3.80;2.58;;;18.80;56.40;;;;;;6189029;23;20015;-92
2021/06/03 00:29:37;;;;;;;4.95;2.97;;;18.80;56.30;;;;;;6187865;23;20004;-92
2021/06/03 00:32:06;;;;;;;5.60;2.90;;;18.70;56.60;;;;;;6189097;23;20022;-92
2021/06/03 00:34:32;;;;;;;7.85;2.90;;;18.60;56.80;;;;;;6189612;23;20001;-92
2021/06/03 00:36:58;;;;;;;4.97;3.03;;;18.50;57.10;;;;;;6189088;23;20054;-92
2021/06/03 00:39:24;;;;;;;4.68;2.63;;;18.50;57.20;;;;;;6188640;23;20005;-92
2021/06/03 00:41:50;;;;;;;6.43;2.58;;;18.50;57.30;;;;;;6189695;23;20087;-91
2021/06/03 00:44:15;;;;;;;11.55;2.92;;;18.50;57.30;;;;;;6189168;23;20008;-92
2021/06/03 00:46:41;;;;;;;5.55;3.08;;;18.40;57.20;;;;;;6189483;23;20402;-92
2021/06/03 00:49:07;;;;;;;4.00;2.90;;;18.30;57.50;;;;;;6188717;23;20004;-92
2021/06/03 00:51:33;;;;;;;5.88;2.92;;;18.30;57.70;;;;;;6188975;23;20709;-93
2021/06/03 00:53:58;;;;;;;5.57;3.10;;;18.20;57.90;;;;;;6189447;23;20076;-92
2021/06/03 00:56:24;;;;;;;3.13;2.67;;;18.10;57.90;;;;;;6215280;23;20047;-91
2021/06/03 00:58:50;;;;;;;5.55;2.50;;;18.10;58.00;;;;;;6215996;23;19993;-92
2021/06/03 01:01:16;;;;;;;4.88;3.22;;;18.00;58.10;;;;;;6188531;23;20035;-92
2021/06/03 01:03:42;;;;;;;3.70;2.80;;;17.90;58.40;;;;;;6189756;23;20466;-93
2021/06/03 01:06:09;;;;;;;5.95;3.10;;;18.00;58.30;;;;;;6189275;23;20008;-91
2021/06/03 01:08:43;;;;;;;3.85;2.85;;;18.00;58.20;;;;;;6214494;23;20009;-91
2021/06/03 01:11:32;;;;;;;3.28;2.85;;;18.00;58.40;;;;;;6187104;23;20039;-91
2021/06/03 01:14:09;;;;;;;4.07;3.50;;;18.10;58.50;;;;;;6186962;23;20028;-92
2021/06/03 01:16:36;;;;;;;5.30;2.70;;;18.10;58.30;;;;;;6186982;23;20031;-90
2021/06/03 01:19:10;;;;;;;6.80;2.95;;;18.10;58.30;;;;;;6188107;23;20005;-92
2021/06/03 01:21:46;;;;;;;7.68;3.30;;;18.10;58.20;;;;;;6215066;23;20136;-91
2021/06/03 01:24:29;;;;;;;5.95;3.65;;;18.10;58.30;;;;;;6214532;23;20443;-92
2021/06/03 01:26:58;;;;;;;4.40;3.28;;;18.10;58.30;;;;;;6188404;23;20091;-92
2021/06/03 01:29:25;;;;;;;3.10;2.72;;;18.10;58.00;;;;;;6188521;23;20016;-89
2021/06/03 01:31:53;;;;;;;5.13;3.05;;;18.10;58.30;;;;;;6188500;23;20035;-92
2021/06/03 01:34:20;;;;;;;5.95;2.75;;;18.10;58.10;;;;;;6188887;23;20340;-92
2021/06/03 01:36:47;;;;;;;6.70;3.55;;;18.10;58.00;;;;;;6189081;23;20009;-91
2021/06/03 01:39:14;;;;;;;5.80;3.38;;;18.10;58.00;;;;;;6188633;23;20050;-93
2021/06/03 01:41:41;;;;;;;5.05;3.22;;;18.20;57.90;;;;;;6188932;23;20019;-92
2021/06/03 01:44:07;;;;;;;5.18;3.58;;;18.20;57.90;;;;;;6188925;23;20001;-91
2021/06/03 01:46:33;;;;;;;4.28;3.42;;;18.20;57.70;;;;;;6190228;23;20033;-92
2021/06/03 01:49:00;;;;;;;5.82;3.45;;;18.30;57.50;;;;;;6188651;23;20012;-92
2021/06/03 01:51:27;;;;;;;3.38;2.72;;;18.20;57.40;;;;;;6189272;23;20008;-91
2021/06/03 01:53:53;;;;;;;4.47;2.63;;;18.20;57.60;;;;;;6188877;23;20000;-92
2021/06/03 01:56:19;;;;;;;3.95;2.92;;;18.00;58.00;;;;;;6187203;23;19997;-90
2021/06/03 01:58:46;;;;;;;8.50;3.70;;;17.80;58.30;;;;;;6210346;23;20062;-91
2021/06/03 02:01:13;;;;;;;5.55;3.55;;;17.80;58.80;;;;;;6184612;23;20013;-90
2021/06/03 02:03:39;;;;;;;3.70;2.90;;;17.70;58.70;;;;;;6186471;23;20055;-93
2021/06/03 02:06:06;;;;;;;4.13;2.85;;;17.70;59.00;;;;;;6189008;23;20024;-92
2021/06/03 02:08:32;;;;;;;3.85;3.28;;;17.70;58.90;;;;;;6188926;23;20067;-92
2021/06/03 02:10:58;;;;;;;3.20;2.70;;;17.80;59.00;;;;;;6215133;23;20005;-92
2021/06/03 02:13:37;;;;;;;3.65;3.30;;;17.90;58.70;;;;;;6215400;23;19997;-93
2021/06/03 02:16:08;;;;;;;3.55;2.80;;;17.90;59.20;;;;;;6189550;23;20136;-93
2021/06/03 02:18:49;;;;;;;3.83;3.08;;;17.90;58.60;;;;;;6188462;23;20001;-93
2021/06/03 02:21:16;;;;;;;5.55;2.75;;;17.80;58.80;;;;;;6187801;23;20039;-93
2021/06/03 02:23:43;;;;;;;5.10;2.90;;;17.70;58.90;;;;;;6189653;23;20005;-85
2021/06/03 02:26:09;;;;;;;3.42;3.08;;;17.70;59.00;;;;;;6185671;23;20435;-85
2021/06/03 02:28:36;;;;;;;7.00;3.38;;;17.70;59.00;;;;;;6212876;23;20008;-84
2021/06/03 02:31:02;;;;;;;6.53;3.10;;;17.60;59.00;;;;;;6185594;23;20016;-85
2021/06/03 02:33:29;;;;;;;3.97;3.20;;;17.50;59.20;;;;;;6185812;23;20005;-85
2021/06/03 02:35:55;;;;;;;3.85;3.28;;;17.50;59.20;;;;;;6186437;23;20822;-85
2021/06/03 02:38:24;;;;;;;6.38;3.22;;;17.50;59.10;;;;;;6185497;23;20084;-84
2021/06/03 02:40:51;;;;;;;5.10;3.28;;;17.30;59.30;;;;;;6185918;23;20012;-85
2021/06/03 02:43:17;;;;;;;3.87;3.07;;;17.30;59.50;;;;;;6185769;23;20008;-85
2021/06/03 02:45:43;;;;;;;3.53;2.90;;;17.30;59.70;;;;;;6185607;23;20057;-85
2021/06/03 02:48:09;;;;;;;6.03;2.80;;;17.30;59.50;;;;;;6185456;23;20017;-86
2021/06/03 02:50:35;;;;;;;3.27;2.77;;;17.20;59.40;;;;;;6185801;23;20008;-85
2021/06/03 02:53:01;;;;;;;3.50;3.00;;;17.10;59.60;;;;;;6185980;23;20005;-84
2021/06/03 02:55:27;;;;;;;5.47;3.10;;;17.10;59.70;;;;;;6186200;23;20009;-85
2021/06/03 02:57:53;;;;;;;4.60;2.67;;;17.10;59.70;;;;;;6185983;23;20001;-85
2021/06/03 03:00:31;;;;;;;4.43;3.13;;;17.10;59.70;;;;;;6185421;23;20008;-86
2021/06/03 03:03:03;;;;;;;3.30;2.55;;;17.00;59.90;;;;;;6186124;23;20017;-85
2021/06/03 03:05:29;;;;;;;6.97;3.00;;;16.90;60.00;;;;;;6186112;23;20016;-84
2021/06/03 03:07:55;;;;;;;3.70;2.83;;;16.90;60.10;;;;;;6186787;23;20028;-85
2021/06/03 03:10:27;;;;;;;4.67;3.43;;;16.90;60.00;;;;;;6185664;23;20067;-85
2021/06/03 03:12:52;;;;;;;5.57;3.07;;;16.90;60.00;;;;;;6212786;23;20059;-85
2021/06/03 03:15:19;;;;;;;4.90;3.10;;;16.80;60.20;;;;;;6185412;23;19996;-85
2021/06/03 03:17:45;;;;;;;5.30;2.57;;;16.80;60.40;;;;;;6185699;23;20455;-86
2021/06/03 03:20:13;;;;;;;8.40;3.33;;;16.80;60.50;;;;;;6184740;23;20055;-85
2021/06/03 03:22:40;;;;;;;3.83;2.93;;;16.80;60.50;;;;;;6185887;23;19996;-85
2021/06/03 03:25:09;;;;;;;4.87;3.17;;;16.80;60.50;;;;;;6186317;23;20005;-85
2021/06/03 03:27:35;;;;;;;5.97;3.20;;;16.80;60.80;;;;;;6211455;23;20463;-84
2021/06/03 03:30:01;;;;;;;5.47;3.30;;;16.80;60.60;;;;;;6212926;23;20008;-85
2021/06/03 03:32:27;;;;;;;3.67;2.60;;;16.80;60.50;;;;;;6188396;23;20001;-84
2021/06/03 03:34:52;;;;;;;5.73;3.50;;;16.80;60.70;;;;;;6188775;23;20005;-85
2021/06/03 03:37:18;;;;;;;6.13;3.30;;;16.80;60.60;;;;;;6187648;23;20030;-85
2021/06/03 03:39:44;;;;;;;3.30;2.73;;;16.80;60.70;;;;;;6214503;23;20001;-84
2021/06/03 03:42:09;;;;;;;6.03;3.00;;;16.90;60.60;;;;;;6187877;23;20059;-85
2021/06/03 03:44:35;;;;;;;3.43;3.10;;;16.90;60.50;;;;;;6187650;23;20008;-85
2021/06/03 03:47:01;;;;;;;5.13;3.37;;;16.80;60.60;;;;;;6187501;23;20016;-85
2021/06/03 03:49:27;;;;;;;3.47;3.13;;;16.80;60.60;;;;;;6213099;23;20382;-85
2021/06/03 03:51:53;;;;;;;4.37;3.43;;;16.80;60.80;;;;;;6187590;23;20009;-85
2021/06/03 03:54:19;;;;;;;5.53;3.50;;;16.80;60.80;;;;;;6187357;23;20015;-85
2021/06/03 03:56:45;;;;;;;3.87;3.27;;;16.80;61.00;;;;;;6187255;23;20012;-85
2021/06/03 03:59:10;;;;;;;6.47;3.70;;;16.70;61.30;;;;;;6212771;23;20285;-86
2021/06/03 04:01:36;;;;;;;5.27;3.20;;;16.80;61.20;;;;;;6182864;23;20044;-86
2021/06/03 04:04:02;;;;;;;5.30;3.13;;;16.80;61.10;;;;;;6181304;23;20087;-85
2021/06/03 04:06:28;;;;;;;5.53;3.20;;;16.70;61.20;;;;;;6181497;23;20025;-85
2021/06/03 04:08:55;;;;;;;4.17;3.20;;;16.70;61.20;;;;;;6181478;23;20373;-85
2021/06/03 04:11:24;;;;;;;3.33;2.63;;;16.70;61.40;;;;;;6181149;23;20013;-85
2021/06/03 04:13:50;;;;;;;3.33;2.67;;;16.70;61.10;;;;;;6182222;23;20120;-83
2021/06/03 04:16:16;;;;;;;6.47;3.20;;;16.70;60.90;;;;;;6184234;23;20613;-84
2021/06/03 04:18:42;;;;;;;5.60;2.97;;;16.70;60.70;;;;;;6187141;23;20008;-85
2021/06/03 04:21:08;;;;;;;5.17;3.37;;;16.70;61.00;;;;;;6188113;23;20065;-85
2021/06/03 04:23:34;;;;;;;4.70;3.80;;;16.70;61.20;;;;;;6184532;23;20087;-84
2021/06/03 04:25:59;;;;;;;5.27;3.77;;;16.60;61.20;;;;;;6185108;23;20005;-85
2021/06/03 04:28:25;;;;;;;5.57;3.30;;;16.60;61.20;;;;;;6184411;23;20008;-84
2021/06/03 04:30:51;;;;;;;5.23;3.30;;;16.60;61.30;;;;;;6184152;23;20041;-84
2021/06/03 04:33:20;;;;;;;5.20;3.10;;;16.60;61.70;;;;;;6183106;23;20001;-85
2021/06/03 04:35:47;;;;;;;3.20;2.83;;;16.50;61.60;;;;;;6183209;23;20011;-85
2021/06/03 04:38:12;;;;;;;4.03;3.13;;;16.50;61.70;;;;;;6177835;23;20001;-84
2021/06/03 04:40:38;;;;;;;4.20;3.50;;;16.60;61.70;;;;;;6178281;23;20105;-85
2021/06/03 04:43:04;;;;;;;4.47;3.60;;;16.60;61.70;;;;;;6182306;23;20016;-85
2021/06/03 04:45:34;;;;;;;6.17;3.47;;;16.70;61.70;;;;;;6183785;23;20012;-85
2021/06/03 04:48:00;;;;;;;5.37;3.60;;;16.70;61.70;;;;;;6181554;23;20009;-84
2021/06/03 04:50:26;;;;;;;5.97;3.60;;;16.70;61.70;;;;;;6181250;23;20020;-85
2021/06/03 04:52:52;;;;;;;4.13;3.37;;;16.60;61.80;;;;;;6181880;23;20439;-85
2021/06/03 04:55:22;;;;;;;7.77;4.07;;;16.60;61.90;;;;;;6182201;23;20063;-85
2021/06/03 04:57:48;;;;;;;4.87;3.37;;;16.50;62.30;;;;;;6182024;23;20091;-85
2021/06/03 05:00:18;;;;;;;7.67;3.80;;;16.50;62.50;;;;;;6183450;23;20001;-86
2021/06/03 05:02:46;;;;;;;4.47;3.53;;;16.60;62.40;;;;;;6181267;23;20009;-85
2021/06/03 05:05:13;;;;;;;6.20;3.93;;;16.70;62.20;;;;;;6184930;23;20001;-85
2021/06/03 05:07:39;;;;;;;4.30;3.53;;;16.80;62.30;;;;;;6187617;23;20012;-84
2021/06/03 05:10:05;;;;;;;4.47;3.88;;;16.80;62.20;;;;;;6186581;23;20004;-85
2021/06/03 05:12:32;;;;;;;6.27;3.97;;;16.90;62.30;;;;;;6187311;23;20082;-85
2021/06/03 05:14:58;;;;;;;4.10;3.57;;;16.90;62.10;;;;;;6186173;23;20001;-86
2021/06/03 05:17:24;;;;;;;5.97;3.58;;;17.00;62.10;;;;;;6186548;23;20465;-85
2021/06/03 05:19:49;;;;;;;4.73;3.73;;;17.00;61.90;;;;;;6186163;23;20008;-86
2021/06/03 05:22:15;;;;;;;6.60;3.60;;;17.00;62.50;;;;;;6185805;23;20012;-86
2021/06/03 05:24:41;;;;;;;6.63;3.78;;;17.10;61.80;;;;;;6185178;23;20019;-85
2021/06/03 05:27:07;;;;;;;6.43;4.03;;;17.10;61.70;;;;;;6186572;23;20008;-85
2021/06/03 05:29:34;;;;;;;3.92;3.42;;;17.10;61.70;;;;;;6186918;23;20011;-85
2021/06/03 05:31:59;;;;;;;4.28;3.88;;;17.20;61.70;;;;;;6186518;23;20035;-85
2021/06/03 05:34:25;;;;;;;6.88;4.35;;;17.20;61.60;;;;;;6186418;23;20025;-85
2021/06/03 05:36:51;;;;;;;5.65;3.80;;;17.20;61.50;;;;;;6186033;23;20004;-85
2021/06/03 05:39:17;;;;;;;4.82;3.65;;;17.30;61.50;;;;;;6184837;23;20005;-85
2021/06/03 05:41:44;;;;;;;5.45;4.13;;;17.30;61.50;;;;;;6181514;23;20343;-85
2021/06/03 05:44:11;;;;;;;3.40;3.10;;;17.40;61.60;;;;;;6181507;23;20372;-85
2021/06/03 05:46:39;;;;;;;6.07;3.95;;;17.50;61.40;;;;;;6184421;23;20413;-85
2021/06/03 05:49:09;;;;;;;5.57;4.07;;;17.60;61.00;;;;;;6212773;23;20004;-84
2021/06/03 05:51:37;;;;;;;7.68;4.15;;;17.60;61.20;;;;;;6186657;23;20514;-87
2021/06/03 05:54:03;;;;;;;5.13;3.60;;;17.60;61.20;;;;;;6212899;23;20001;-85
2021/06/03 05:56:29;;;;;;;5.65;4.40;;;17.60;61.00;;;;;;6213886;23;20053;-86
2021/06/03 05:58:55;;;;;;;7.88;3.65;;;17.60;60.90;;;;;;6186811;23;20339;-85
2021/06/03 06:01:22;;;;;;;4.97;3.65;;;17.70;60.80;;;;;;6185892;23;20095;-85
2021/06/03 06:03:55;;;;;;;6.00;3.83;;;17.60;60.40;;;;;;6186343;23;20004;-85
2021/06/03 06:06:24;;;;;;;4.68;3.95;;;17.60;60.20;;;;;;6186622;23;20020;-84
2021/06/03 06:08:52;;;;;;;5.60;4.30;;;17.60;60.20;;;;;;6186617;23;20012;-85
2021/06/03 06:11:18;;;;;;;5.20;4.07;;;17.60;60.10;;;;;;6186732;23;20031;-84
2021/06/03 06:13:44;;;;;;;5.07;3.83;;;17.70;60.00;;;;;;6185967;23;20083;-85
2021/06/03 06:16:10;;;;;;;5.70;3.90;;;17.70;59.70;;;;;;6186341;23;20043;-86
2021/06/03 06:18:37;;;;;;;5.53;4.57;;;17.80;59.70;;;;;;6185838;23;20026;-87
2021/06/03 06:21:03;;;;;;;4.68;4.00;;;17.80;59.50;;;;;;6186584;23;20005;-85
2021/06/03 06:23:29;;;;;;;6.10;3.88;;;17.80;59.40;;;;;;6185538;23;20415;-85
2021/06/03 06:25:55;;;;;;;5.28;3.58;;;17.80;59.30;;;;;;6212960;23;20005;-86
2021/06/03 06:28:20;;;;;;;4.05;3.65;;;17.90;59.40;;;;;;6186275;23;20350;-85
2021/06/03 06:30:46;;;;;;;4.55;3.17;;;17.90;59.10;;;;;;6212395;23;20079;-85
2021/06/03 06:33:14;;;;;;;3.63;3.33;;;17.90;58.90;;;;;;6186515;23;20407;-85
2021/06/03 06:35:40;;;;;;;4.95;3.13;;;17.90;58.80;;;;;;6211344;23;20079;-85
2021/06/03 06:38:06;;;;;;;4.10;3.30;;;17.90;59.40;;;;;;6186201;23;20001;-86
2021/06/03 06:40:33;;;;;;;5.28;3.75;;;18.00;59.00;;;;;;6185916;23;20062;-84
2021/06/03 06:42:58;;;;;;;4.25;3.55;;;18.10;59.30;;;;;;6186573;23;20091;-84
2021/06/03 06:45:29;;;;;;;4.40;3.80;;;18.10;59.20;;;;;;6185465;23;20494;-85
2021/06/03 06:47:55;;;;;;;6.13;3.75;;;18.30;58.80;;;;;;6186489;23;20073;-84
2021/06/03 06:50:24;;;;;;;6.57;3.60;;;18.40;58.50;;;;;;6185443;23;20465;-85
2021/06/03 06:52:52;;;;;;;4.90;3.40;;;18.60;58.10;;;;;;6186046;23;20009;-85
2021/06/03 06:55:19;;;;;;;4.10;3.22;;;18.70;57.80;;;;;;6187767;23;20024;-85
2021/06/03 06:57:45;;;;;;;3.97;3.33;;;18.80;57.50;;;;;;6186599;23;20052;-85
2021/06/03 07:00:11;;;;;;;3.33;2.92;;;19.00;57.20;;;;;;6187311;23;20070;-85
2021/06/03 07:02:38;;;;;;;4.65;2.95;;;19.10;57.20;;;;;;6187633;23;20001;-85
2021/06/03 07:05:07;;;;;;;7.00;2.90;;;19.20;56.90;;;;;;6186590;23;20000;-85
2021/06/03 07:07:33;;;;;;;2.97;2.67;;;19.30;56.30;;;;;;6213390;23;20004;-85
2021/06/03 07:09:59;;;;;;;4.43;3.05;;;19.30;55.50;;;;;;6186029;23;20465;-86
2021/06/03 07:12:25;;;;;;;3.13;2.70;;;19.40;55.00;;;;;;6187171;23;20005;-85
2021/06/03 07:14:51;;;;;;;3.33;2.88;;;19.50;54.80;;;;;;6186910;23;20035;-85
2021/06/03 07:17:17;;;;;;;3.67;2.50;;;19.60;54.40;;;;;;6187042;23;20008;-85
2021/06/03 07:19:43;;;;;;;3.72;2.80;;;19.70;54.10;;;;;;6213687;23;20415;-85
2021/06/03 07:22:10;;;;;;;3.85;2.60;;;19.80;53.90;;;;;;6162324;23;20028;-84
2021/06/03 07:24:36;;;;;;;7.10;3.30;;;19.90;53.60;;;;;;6187584;23;20043;-85
2021/06/03 07:27:04;;;;;;;3.50;2.85;;;20.00;53.40;;;;;;6187262;23;20052;-85
2021/06/03 07:29:30;;;;;;;3.47;2.65;;;20.20;53.50;;;;;;6186591;23;20012;-85
2021/06/03 07:31:56;;;;;;;3.55;2.50;;;20.30;53.50;;;;;;6187110;23;20015;-86
2021/06/03 07:34:21;;;;;;;3.50;2.72;;;20.40;53.70;;;;;;6187016;23;20031;-85
2021/06/03 07:36:47;;;;;;;4.35;3.25;;;20.50;53.90;;;;;;6187451;23;20001;-85
2021/06/03 07:39:13;;;;;;;2.92;2.63;;;20.60;53.70;;;;;;6187437;23;20005;-85
2021/06/03 07:41:39;;;;;;;3.38;2.85;;;20.80;53.40;;;;;;6187319;23;20431;-85
2021/06/03 07:44:05;;;;;;;4.40;2.80;;;20.90;52.90;;;;;;6186552;23;20005;-85
2021/06/03 07:46:31;;;;;;;2.50;2.30;;;21.00;52.30;;;;;;6213719;23;20000;-85
2021/06/03 07:48:57;;;;;;;8.68;2.80;;;21.10;51.80;;;;;;6186193;23;20005;-85
2021/06/03 07:51:23;;;;;;;5.97;2.17;;;21.10;51.50;;;;;;6186122;23;20012;-85
2021/06/03 07:53:49;;;;;;;3.67;2.22;;;21.10;51.50;;;;;;6186560;23;20004;-84
2021/06/03 07:56:15;;;;;;;3.60;2.33;;;21.20;50.80;;;;;;6185985;23;20000;-85
2021/06/03 07:58:41;;;;;;;3.95;2.42;;;21.30;50.00;;;;;;6212758;23;20004;-85
2021/06/03 08:01:07;;;;;;;3.45;2.67;;;21.40;49.60;;;;;;6186564;23;20013;-87
2021/06/03 08:03:33;;;;;;;3.95;2.83;;;21.50;49.10;;;;;;6187159;23;20067;-87
2021/06/03 08:05:59;;;;;;;6.90;2.85;;;21.60;48.90;;;;;;6162012;23;20020;-87
2021/06/03 08:08:25;;;;;;;5.97;2.53;;;21.70;48.90;;;;;;6212850;23;20004;-86
2021/06/03 08:10:51;;;;;;;2.95;2.38;;;21.90;48.50;;;;;;6186532;23;20099;-86
2021/06/03 08:13:17;;;;;;;4.72;2.25;;;22.00;48.50;;;;;;6212660;23;20004;-87
